sensor_id;sensor_type;location;lat;lon;timestamp;P1;durP1;ratioP1;P2;durP2;ratioP2
53052;SDS011;38934;52.690;6.184;2023-05-10T00:01:07;19.25;;;13.20;;
53052;SDS011;38934;52.690;6.184;2023-05-10T00:03:33;16.35;;;12.02;;
53052;SDS011;38934;52.690;6.184;2023-05-10T00:05:59;16.65;;;11.55;;
53052;SDS011;38934;52.690;6.184;2023-05-10T00:08:25;16.23;;;11.93;;
53052;SDS011;38934;52.690;6.184;2023-05-10T00:10:51;14.68;;;11.10;;
53052;SDS011;38934;52.690;6.184;2023-05-10T00:13:18;15.50;;;10.60;;
53052;SDS011;38934;52.690;6.184;2023-05-10T00:15:43;14.73;;;11.10;;
53052;SDS011;38934;52.690;6.184;2023-05-10T00:18:09;13.52;;;9.98;;
53052;SDS011;38934;52.690;6.184;2023-05-10T00:20:35;13.95;;;10.38;;
53052;SDS011;38934;52.690;6.184;2023-05-10T00:23:01;14.88;;;10.18;;
53052;SDS011;38934;52.690;6.184;2023-05-10T00:25:27;15.13;;;9.85;;
53052;SDS011;38934;52.690;6.184;2023-05-10T00:27:52;15.25;;;9.65;;
53052;SDS011;38934;52.690;6.184;2023-05-10T00:30:20;12.82;;;8.93;;
53052;SDS011;38934;52.690;6.184;2023-05-10T00:32:46;11.65;;;8.52;;
53052;SDS011;38934;52.690;6.184;2023-05-10T00:35:13;12.75;;;8.95;;
53052;SDS011;38934;52.690;6.184;2023-05-10T00:37:40;11.57;;;8.80;;
53052;SDS011;38934;52.690;6.184;2023-05-10T00:40:05;13.52;;;9.02;;
53052;SDS011;38934;52.690;6.184;2023-05-10T00:42:33;12.80;;;8.57;;
53052;SDS011;38934;52.690;6.184;2023-05-10T00:44:59;10.82;;;8.15;;
53052;SDS011;38934;52.690;6.184;2023-05-10T00:47:24;10.32;;;8.40;;
53052;SDS011;38934;52.690;6.184;2023-05-10T00:49:50;10.57;;;8.13;;
53052;SDS011;38934;52.690;6.184;2023-05-10T00:52:17;10.98;;;8.13;;
53052;SDS011;38934;52.690;6.184;2023-05-10T00:54:43;11.48;;;8.10;;
53052;SDS011;38934;52.690;6.184;2023-05-10T00:57:09;10.35;;;8.02;;
53052;SDS011;38934;52.690;6.184;2023-05-10T00:59:35;11.27;;;8.02;;
53052;SDS011;38934;52.690;6.184;2023-05-10T01:02:01;12.48;;;8.10;;
53052;SDS011;38934;52.690;6.184;2023-05-10T01:04:27;9.93;;;7.47;;
53052;SDS011;38934;52.690;6.184;2023-05-10T01:09:22;8.85;;;7.18;;
53052;SDS011;38934;52.690;6.184;2023-05-10T01:11:51;9.48;;;7.53;;
53052;SDS011;38934;52.690;6.184;2023-05-10T01:14:17;9.10;;;6.30;;
53052;SDS011;38934;52.690;6.184;2023-05-10T01:16:44;9.38;;;7.07;;
53052;SDS011;38934;52.690;6.184;2023-05-10T01:19:33;9.27;;;6.65;;
53052;SDS011;38934;52.690;6.184;2023-05-10T01:22:06;8.10;;;6.10;;
53052;SDS011;38934;52.690;6.184;2023-05-10T01:35:33;9.77;;;6.30;;
53052;SDS011;38934;52.690;6.184;2023-05-10T01:43:25;8.15;;;6.13;;
53052;SDS011;38934;52.690;6.184;2023-05-10T01:48:26;9.45;;;6.20;;
53052;SDS011;38934;52.690;6.184;2023-05-10T01:50:52;8.77;;;6.45;;
53052;SDS011;38934;52.690;6.184;2023-05-10T01:53:19;9.02;;;6.10;;
53052;SDS011;38934;52.690;6.184;2023-05-10T01:55:48;7.47;;;5.88;;
53052;SDS011;38934;52.690;6.184;2023-05-10T01:58:19;8.35;;;6.05;;
53052;SDS011;38934;52.690;6.184;2023-05-10T02:00:52;7.40;;;5.88;;
53052;SDS011;38934;52.690;6.184;2023-05-10T02:03:20;8.57;;;5.90;;
53052;SDS011;38934;52.690;6.184;2023-05-10T02:05:48;12.63;;;6.13;;
53052;SDS011;38934;52.690;6.184;2023-05-10T02:08:15;7.95;;;5.88;;
53052;SDS011;38934;52.690;6.184;2023-05-10T02:10:44;9.00;;;6.20;;
53052;SDS011;38934;52.690;6.184;2023-05-10T02:13:12;9.13;;;6.47;;
53052;SDS011;38934;52.690;6.184;2023-05-10T02:15:40;8.70;;;6.47;;
53052;SDS011;38934;52.690;6.184;2023-05-10T02:18:12;7.75;;;6.18;;
53052;SDS011;38934;52.690;6.184;2023-05-10T02:20:38;9.00;;;6.32;;
53052;SDS011;38934;52.690;6.184;2023-05-10T02:23:05;9.32;;;6.53;;
53052;SDS011;38934;52.690;6.184;2023-05-10T02:25:33;7.63;;;6.03;;
53052;SDS011;38934;52.690;6.184;2023-05-10T02:28:01;9.50;;;6.85;;
53052;SDS011;38934;52.690;6.184;2023-05-10T02:30:28;9.32;;;6.78;;
53052;SDS011;38934;52.690;6.184;2023-05-10T02:32:57;8.75;;;7.15;;
53052;SDS011;38934;52.690;6.184;2023-05-10T02:35:25;11.25;;;7.35;;
53052;SDS011;38934;52.690;6.184;2023-05-10T02:37:52;9.27;;;6.55;;
53052;SDS011;38934;52.690;6.184;2023-05-10T02:40:19;12.18;;;8.18;;
53052;SDS011;38934;52.690;6.184;2023-05-10T02:42:47;10.30;;;7.30;;
53052;SDS011;38934;52.690;6.184;2023-05-10T02:45:18;9.55;;;7.20;;
53052;SDS011;38934;52.690;6.184;2023-05-10T02:47:46;9.75;;;7.70;;
53052;SDS011;38934;52.690;6.184;2023-05-10T02:50:16;10.43;;;7.68;;
53052;SDS011;38934;52.690;6.184;2023-05-10T02:55:25;9.35;;;7.43;;
53052;SDS011;38934;52.690;6.184;2023-05-10T02:58:00;9.73;;;7.20;;
53052;SDS011;38934;52.690;6.184;2023-05-10T03:00:28;11.15;;;8.20;;
53052;SDS011;38934;52.690;6.184;2023-05-10T03:02:54;9.10;;;7.07;;
53052;SDS011;38934;52.690;6.184;2023-05-10T03:05:20;11.07;;;7.18;;
53052;SDS011;38934;52.690;6.184;2023-05-10T03:07:48;9.85;;;7.38;;
53052;SDS011;38934;52.690;6.184;2023-05-10T03:10:14;10.23;;;7.43;;
53052;SDS011;38934;52.690;6.184;2023-05-10T03:12:43;10.25;;;7.75;;
53052;SDS011;38934;52.690;6.184;2023-05-10T03:18:05;12.23;;;7.07;;
53052;SDS011;38934;52.690;6.184;2023-05-10T03:20:38;9.48;;;6.88;;
53052;SDS011;38934;52.690;6.184;2023-05-10T03:23:55;10.98;;;7.60;;
53052;SDS011;38934;52.690;6.184;2023-05-10T03:26:23;8.82;;;6.93;;
53052;SDS011;38934;52.690;6.184;2023-05-10T03:28:51;10.85;;;7.38;;
53052;SDS011;38934;52.690;6.184;2023-05-10T03:31:18;8.77;;;7.05;;
53052;SDS011;38934;52.690;6.184;2023-05-10T03:33:47;12.07;;;7.35;;
53052;SDS011;38934;52.690;6.184;2023-05-10T03:36:16;8.63;;;6.83;;
53052;SDS011;38934;52.690;6.184;2023-05-10T03:38:42;10.63;;;6.95;;
53052;SDS011;38934;52.690;6.184;2023-05-10T03:41:08;13.25;;;7.35;;
53052;SDS011;38934;52.690;6.184;2023-05-10T03:43:35;9.60;;;6.72;;
53052;SDS011;38934;52.690;6.184;2023-05-10T03:46:02;9.65;;;6.80;;
53052;SDS011;38934;52.690;6.184;2023-05-10T03:48:29;8.95;;;6.57;;
53052;SDS011;38934;52.690;6.184;2023-05-10T03:50:56;8.70;;;6.07;;
53052;SDS011;38934;52.690;6.184;2023-05-10T03:53:22;7.95;;;5.75;;
53052;SDS011;38934;52.690;6.184;2023-05-10T03:55:48;6.60;;;5.22;;
53052;SDS011;38934;52.690;6.184;2023-05-10T03:58:15;11.38;;;6.47;;
53052;SDS011;38934;52.690;6.184;2023-05-10T04:00:41;10.93;;;7.10;;
53052;SDS011;38934;52.690;6.184;2023-05-10T04:03:10;11.25;;;6.85;;
53052;SDS011;38934;52.690;6.184;2023-05-10T04:05:38;9.20;;;6.95;;
53052;SDS011;38934;52.690;6.184;2023-05-10T04:08:04;11.20;;;7.65;;
53052;SDS011;38934;52.690;6.184;2023-05-10T04:10:30;10.95;;;7.45;;
53052;SDS011;38934;52.690;6.184;2023-05-10T04:12:57;11.30;;;6.78;;
53052;SDS011;38934;52.690;6.184;2023-05-10T04:15:23;9.85;;;6.78;;
53052;SDS011;38934;52.690;6.184;2023-05-10T04:17:51;9.40;;;6.30;;
53052;SDS011;38934;52.690;6.184;2023-05-10T04:20:16;9.70;;;6.45;;
53052;SDS011;38934;52.690;6.184;2023-05-10T04:22:42;11.05;;;7.07;;
53052;SDS011;38934;52.690;6.184;2023-05-10T04:25:08;10.10;;;7.07;;
53052;SDS011;38934;52.690;6.184;2023-05-10T04:27:33;9.05;;;6.53;;
53052;SDS011;38934;52.690;6.184;2023-05-10T04:30:00;8.50;;;6.65;;
53052;SDS011;38934;52.690;6.184;2023-05-10T04:32:26;9.75;;;7.38;;
53052;SDS011;38934;52.690;6.184;2023-05-10T04:34:56;9.65;;;7.10;;
53052;SDS011;38934;52.690;6.184;2023-05-10T04:37:22;11.13;;;6.78;;
53052;SDS011;38934;52.690;6.184;2023-05-10T04:39:48;12.05;;;7.32;;
53052;SDS011;38934;52.690;6.184;2023-05-10T04:42:13;13.45;;;7.80;;
53052;SDS011;38934;52.690;6.184;2023-05-10T04:44:40;13.55;;;8.00;;
53052;SDS011;38934;52.690;6.184;2023-05-10T04:47:06;12.40;;;7.75;;
53052;SDS011;38934;52.690;6.184;2023-05-10T04:49:31;11.45;;;7.50;;
53052;SDS011;38934;52.690;6.184;2023-05-10T04:51:57;11.50;;;7.35;;
53052;SDS011;38934;52.690;6.184;2023-05-10T04:54:23;11.68;;;7.80;;
53052;SDS011;38934;52.690;6.184;2023-05-10T04:56:49;13.20;;;7.88;;
53052;SDS011;38934;52.690;6.184;2023-05-10T04:59:15;12.55;;;8.52;;
53052;SDS011;38934;52.690;6.184;2023-05-10T05:01:41;12.68;;;7.25;;
53052;SDS011;38934;52.690;6.184;2023-05-10T05:04:06;12.65;;;7.93;;
53052;SDS011;38934;52.690;6.184;2023-05-10T05:06:32;11.48;;;7.50;;
53052;SDS011;38934;52.690;6.184;2023-05-10T05:08:58;12.38;;;7.80;;
53052;SDS011;38934;52.690;6.184;2023-05-10T05:11:23;14.95;;;8.50;;
53052;SDS011;38934;52.690;6.184;2023-05-10T05:13:50;11.38;;;7.68;;
53052;SDS011;38934;52.690;6.184;2023-05-10T05:16:17;12.90;;;7.78;;
53052;SDS011;38934;52.690;6.184;2023-05-10T05:18:43;13.50;;;7.70;;
53052;SDS011;38934;52.690;6.184;2023-05-10T05:21:17;15.38;;;9.05;;
53052;SDS011;38934;52.690;6.184;2023-05-10T05:23:43;14.02;;;8.27;;
53052;SDS011;38934;52.690;6.184;2023-05-10T05:26:10;13.02;;;8.02;;
53052;SDS011;38934;52.690;6.184;2023-05-10T05:28:36;15.77;;;8.80;;
53052;SDS011;38934;52.690;6.184;2023-05-10T05:31:04;14.98;;;8.52;;
53052;SDS011;38934;52.690;6.184;2023-05-10T05:33:33;15.30;;;9.05;;
53052;SDS011;38934;52.690;6.184;2023-05-10T05:36:02;15.40;;;8.13;;
53052;SDS011;38934;52.690;6.184;2023-05-10T05:38:29;15.43;;;8.50;;
53052;SDS011;38934;52.690;6.184;2023-05-10T05:40:57;14.27;;;8.20;;
53052;SDS011;38934;52.690;6.184;2023-05-10T05:43:23;14.45;;;8.70;;
53052;SDS011;38934;52.690;6.184;2023-05-10T05:45:49;15.98;;;8.73;;
53052;SDS011;38934;52.690;6.184;2023-05-10T05:48:17;14.82;;;8.90;;
53052;SDS011;38934;52.690;6.184;2023-05-10T05:50:42;15.30;;;8.55;;
53052;SDS011;38934;52.690;6.184;2023-05-10T05:53:08;14.85;;;8.40;;
53052;SDS011;38934;52.690;6.184;2023-05-10T05:55:40;14.40;;;8.57;;
53052;SDS011;38934;52.690;6.184;2023-05-10T05:58:15;13.85;;;8.68;;
53052;SDS011;38934;52.690;6.184;2023-05-10T06:00:43;13.77;;;8.38;;
53052;SDS011;38934;52.690;6.184;2023-05-10T06:03:11;13.73;;;8.57;;
53052;SDS011;38934;52.690;6.184;2023-05-10T06:05:37;14.15;;;7.75;;
53052;SDS011;38934;52.690;6.184;2023-05-10T06:08:02;14.30;;;8.15;;
53052;SDS011;38934;52.690;6.184;2023-05-10T06:10:29;14.23;;;8.80;;
53052;SDS011;38934;52.690;6.184;2023-05-10T06:15:27;13.95;;;8.90;;
53052;SDS011;38934;52.690;6.184;2023-05-10T06:17:52;16.13;;;9.35;;
53052;SDS011;38934;52.690;6.184;2023-05-10T06:20:18;16.70;;;9.10;;
53052;SDS011;38934;52.690;6.184;2023-05-10T06:22:45;16.95;;;8.75;;
53052;SDS011;38934;52.690;6.184;2023-05-10T06:25:13;16.63;;;9.60;;
53052;SDS011;38934;52.690;6.184;2023-05-10T06:27:39;14.00;;;8.68;;
53052;SDS011;38934;52.690;6.184;2023-05-10T06:30:05;16.65;;;9.80;;
53052;SDS011;38934;52.690;6.184;2023-05-10T06:32:31;18.15;;;9.82;;
53052;SDS011;38934;52.690;6.184;2023-05-10T06:34:57;16.00;;;9.18;;
53052;SDS011;38934;52.690;6.184;2023-05-10T06:37:23;15.48;;;8.65;;
53052;SDS011;38934;52.690;6.184;2023-05-10T06:39:56;12.63;;;7.97;;
53052;SDS011;38934;52.690;6.184;2023-05-10T06:42:25;21.45;;;8.35;;
53052;SDS011;38934;52.690;6.184;2023-05-10T06:45:03;16.40;;;9.07;;
53052;SDS011;38934;52.690;6.184;2023-05-10T06:47:45;17.02;;;8.75;;
53052;SDS011;38934;52.690;6.184;2023-05-10T06:50:15;14.77;;;8.20;;
53052;SDS011;38934;52.690;6.184;2023-05-10T06:52:42;18.80;;;8.90;;
53052;SDS011;38934;52.690;6.184;2023-05-10T06:55:09;14.27;;;8.52;;
53052;SDS011;38934;52.690;6.184;2023-05-10T06:57:35;17.02;;;8.75;;
53052;SDS011;38934;52.690;6.184;2023-05-10T07:02:31;14.38;;;8.32;;
53052;SDS011;38934;52.690;6.184;2023-05-10T07:07:33;16.08;;;9.10;;
53052;SDS011;38934;52.690;6.184;2023-05-10T07:10:00;14.90;;;7.65;;
53052;SDS011;38934;52.690;6.184;2023-05-10T07:12:28;13.05;;;7.75;;
53052;SDS011;38934;52.690;6.184;2023-05-10T07:14:55;13.57;;;7.78;;
53052;SDS011;38934;52.690;6.184;2023-05-10T07:17:23;13.40;;;8.10;;
53052;SDS011;38934;52.690;6.184;2023-05-10T07:19:51;13.90;;;8.20;;
53052;SDS011;38934;52.690;6.184;2023-05-10T07:22:24;15.98;;;8.32;;
53052;SDS011;38934;52.690;6.184;2023-05-10T07:24:55;13.07;;;6.88;;
53052;SDS011;38934;52.690;6.184;2023-05-10T07:27:21;11.60;;;7.00;;
53052;SDS011;38934;52.690;6.184;2023-05-10T07:29:46;11.68;;;6.22;;
53052;SDS011;38934;52.690;6.184;2023-05-10T07:32:12;9.82;;;6.60;;
53052;SDS011;38934;52.690;6.184;2023-05-10T07:37:34;10.53;;;5.93;;
53052;SDS011;38934;52.690;6.184;2023-05-10T07:42:59;8.23;;;4.50;;
53052;SDS011;38934;52.690;6.184;2023-05-10T07:45:26;4.53;;;3.22;;
53052;SDS011;38934;52.690;6.184;2023-05-10T07:48:00;4.47;;;3.55;;
53052;SDS011;38934;52.690;6.184;2023-05-10T07:50:42;4.63;;;3.33;;
53052;SDS011;38934;52.690;6.184;2023-05-10T07:53:10;4.60;;;3.10;;
53052;SDS011;38934;52.690;6.184;2023-05-10T07:55:35;6.45;;;3.42;;
53052;SDS011;38934;52.690;6.184;2023-05-10T07:58:07;6.38;;;3.85;;
53052;SDS011;38934;52.690;6.184;2023-05-10T08:00:48;6.20;;;3.90;;
53052;SDS011;38934;52.690;6.184;2023-05-10T08:03:20;7.07;;;4.82;;
53052;SDS011;38934;52.690;6.184;2023-05-10T08:05:55;7.15;;;4.78;;
53052;SDS011;38934;52.690;6.184;2023-05-10T08:08:22;6.40;;;4.78;;
53052;SDS011;38934;52.690;6.184;2023-05-10T08:10:56;6.53;;;4.95;;
53052;SDS011;38934;52.690;6.184;2023-05-10T08:13:23;7.20;;;5.07;;
53052;SDS011;38934;52.690;6.184;2023-05-10T08:15:50;7.30;;;5.50;;
53052;SDS011;38934;52.690;6.184;2023-05-10T08:18:18;8.38;;;6.32;;
53052;SDS011;38934;52.690;6.184;2023-05-10T08:20:44;7.93;;;5.57;;
53052;SDS011;38934;52.690;6.184;2023-05-10T08:23:09;7.18;;;5.22;;
53052;SDS011;38934;52.690;6.184;2023-05-10T08:25:40;8.05;;;4.70;;
53052;SDS011;38934;52.690;6.184;2023-05-10T08:28:05;6.97;;;4.75;;
53052;SDS011;38934;52.690;6.184;2023-05-10T08:30:31;6.57;;;4.20;;
53052;SDS011;38934;52.690;6.184;2023-05-10T08:32:57;7.00;;;4.68;;
53052;SDS011;38934;52.690;6.184;2023-05-10T08:35:23;7.07;;;4.93;;
53052;SDS011;38934;52.690;6.184;2023-05-10T08:37:50;8.35;;;5.47;;
53052;SDS011;38934;52.690;6.184;2023-05-10T08:40:16;7.03;;;5.15;;
53052;SDS011;38934;52.690;6.184;2023-05-10T08:43:05;6.35;;;4.68;;
53052;SDS011;38934;52.690;6.184;2023-05-10T08:45:33;6.45;;;4.45;;
53052;SDS011;38934;52.690;6.184;2023-05-10T08:48:05;6.18;;;4.40;;
53052;SDS011;38934;52.690;6.184;2023-05-10T08:50:38;7.60;;;5.05;;
53052;SDS011;38934;52.690;6.184;2023-05-10T08:53:06;7.22;;;5.03;;
53052;SDS011;38934;52.690;6.184;2023-05-10T08:55:38;8.45;;;5.47;;
53052;SDS011;38934;52.690;6.184;2023-05-10T08:58:06;8.30;;;5.35;;
53052;SDS011;38934;52.690;6.184;2023-05-10T09:00:32;6.93;;;5.50;;
53052;SDS011;38934;52.690;6.184;2023-05-10T09:02:58;8.70;;;5.45;;
53052;SDS011;38934;52.690;6.184;2023-05-10T09:05:26;8.02;;;5.70;;
53052;SDS011;38934;52.690;6.184;2023-05-10T09:07:52;10.15;;;6.80;;
53052;SDS011;38934;52.690;6.184;2023-05-10T09:10:18;12.13;;;7.10;;
53052;SDS011;38934;52.690;6.184;2023-05-10T09:12:45;10.77;;;8.00;;
53052;SDS011;38934;52.690;6.184;2023-05-10T09:15:12;10.95;;;7.80;;
53052;SDS011;38934;52.690;6.184;2023-05-10T09:17:41;11.95;;;7.47;;
53052;SDS011;38934;52.690;6.184;2023-05-10T09:20:10;9.55;;;6.75;;
53052;SDS011;38934;52.690;6.184;2023-05-10T09:22:35;8.98;;;6.32;;
53052;SDS011;38934;52.690;6.184;2023-05-10T09:25:09;9.25;;;6.70;;
53052;SDS011;38934;52.690;6.184;2023-05-10T09:27:37;8.90;;;7.07;;
53052;SDS011;38934;52.690;6.184;2023-05-10T09:30:04;9.13;;;6.90;;
53052;SDS011;38934;52.690;6.184;2023-05-10T09:32:40;10.68;;;7.60;;
53052;SDS011;38934;52.690;6.184;2023-05-10T09:35:14;11.88;;;8.52;;
53052;SDS011;38934;52.690;6.184;2023-05-10T09:37:42;10.45;;;7.57;;
53052;SDS011;38934;52.690;6.184;2023-05-10T09:40:14;10.93;;;7.78;;
53052;SDS011;38934;52.690;6.184;2023-05-10T09:42:52;10.82;;;8.05;;
53052;SDS011;38934;52.690;6.184;2023-05-10T09:45:26;12.18;;;8.45;;
53052;SDS011;38934;52.690;6.184;2023-05-10T09:47:55;11.63;;;7.93;;
53052;SDS011;38934;52.690;6.184;2023-05-10T09:50:21;11.73;;;8.40;;
53052;SDS011;38934;52.690;6.184;2023-05-10T09:52:50;12.70;;;9.20;;
53052;SDS011;38934;52.690;6.184;2023-05-10T09:55:18;12.50;;;9.10;;
53052;SDS011;38934;52.690;6.184;2023-05-10T09:57:46;10.90;;;8.45;;
53052;SDS011;38934;52.690;6.184;2023-05-10T10:00:17;13.23;;;8.48;;
53052;SDS011;38934;52.690;6.184;2023-05-10T10:02:47;10.60;;;7.70;;
53052;SDS011;38934;52.690;6.184;2023-05-10T10:05:13;10.93;;;7.60;;
53052;SDS011;38934;52.690;6.184;2023-05-10T10:07:41;10.00;;;7.25;;
53052;SDS011;38934;52.690;6.184;2023-05-10T10:10:07;11.02;;;7.78;;
53052;SDS011;38934;52.690;6.184;2023-05-10T10:12:37;10.63;;;7.40;;
53052;SDS011;38934;52.690;6.184;2023-05-10T10:15:04;9.93;;;7.65;;
53052;SDS011;38934;52.690;6.184;2023-05-10T10:17:32;11.27;;;8.02;;
53052;SDS011;38934;52.690;6.184;2023-05-10T10:20:01;13.60;;;10.25;;
53052;SDS011;38934;52.690;6.184;2023-05-10T10:22:28;13.63;;;9.60;;
53052;SDS011;38934;52.690;6.184;2023-05-10T10:24:55;12.98;;;9.32;;
53052;SDS011;38934;52.690;6.184;2023-05-10T10:27:36;11.85;;;9.15;;
53052;SDS011;38934;52.690;6.184;2023-05-10T10:33:13;12.90;;;9.23;;
53052;SDS011;38934;52.690;6.184;2023-05-10T10:36:04;12.73;;;9.77;;
53052;SDS011;38934;52.690;6.184;2023-05-10T10:47:02;13.05;;;8.82;;
53052;SDS011;38934;52.690;6.184;2023-05-10T10:54:52;10.77;;;7.75;;
53052;SDS011;38934;52.690;6.184;2023-05-10T10:57:29;12.55;;;8.50;;
53052;SDS011;38934;52.690;6.184;2023-05-10T11:02:47;12.45;;;9.20;;
53052;SDS011;38934;52.690;6.184;2023-05-10T11:07:58;14.80;;;10.00;;
53052;SDS011;38934;52.690;6.184;2023-05-10T11:10:26;13.80;;;10.15;;
53052;SDS011;38934;52.690;6.184;2023-05-10T11:15:35;17.10;;;11.00;;
53052;SDS011;38934;52.690;6.184;2023-05-10T11:18:23;13.88;;;10.88;;
53052;SDS011;38934;52.690;6.184;2023-05-10T11:20:57;13.63;;;10.32;;
53052;SDS011;38934;52.690;6.184;2023-05-10T11:23:32;16.15;;;11.18;;
53052;SDS011;38934;52.690;6.184;2023-05-10T11:28:34;16.10;;;11.02;;
53052;SDS011;38934;52.690;6.184;2023-05-10T11:31:09;17.60;;;10.73;;
53052;SDS011;38934;52.690;6.184;2023-05-10T11:33:44;13.00;;;9.32;;
53052;SDS011;38934;52.690;6.184;2023-05-10T11:36:14;13.60;;;9.68;;
53052;SDS011;38934;52.690;6.184;2023-05-10T11:38:42;14.15;;;9.57;;
53052;SDS011;38934;52.690;6.184;2023-05-10T11:41:11;14.93;;;10.25;;
53052;SDS011;38934;52.690;6.184;2023-05-10T11:43:41;13.95;;;10.00;;
53052;SDS011;38934;52.690;6.184;2023-05-10T11:46:10;13.77;;;10.02;;
53052;SDS011;38934;52.690;6.184;2023-05-10T11:48:40;14.15;;;9.80;;
53052;SDS011;38934;52.690;6.184;2023-05-10T11:51:07;12.77;;;9.50;;
53052;SDS011;38934;52.690;6.184;2023-05-10T11:53:34;12.77;;;9.30;;
53052;SDS011;38934;52.690;6.184;2023-05-10T11:56:03;12.32;;;9.25;;
53052;SDS011;38934;52.690;6.184;2023-05-10T11:58:36;12.68;;;9.05;;
53052;SDS011;38934;52.690;6.184;2023-05-10T12:01:03;11.90;;;8.93;;
53052;SDS011;38934;52.690;6.184;2023-05-10T12:03:32;10.88;;;8.07;;
53052;SDS011;38934;52.690;6.184;2023-05-10T12:05:59;10.73;;;8.15;;
53052;SDS011;38934;52.690;6.184;2023-05-10T12:08:26;13.13;;;8.60;;
53052;SDS011;38934;52.690;6.184;2023-05-10T12:11:03;12.18;;;8.70;;
53052;SDS011;38934;52.690;6.184;2023-05-10T12:13:31;13.73;;;8.88;;
53052;SDS011;38934;52.690;6.184;2023-05-10T12:16:00;10.50;;;7.78;;
53052;SDS011;38934;52.690;6.184;2023-05-10T12:18:41;12.23;;;7.88;;
53052;SDS011;38934;52.690;6.184;2023-05-10T12:21:10;12.10;;;8.00;;
53052;SDS011;38934;52.690;6.184;2023-05-10T12:23:37;11.38;;;8.38;;
53052;SDS011;38934;52.690;6.184;2023-05-10T12:26:04;9.85;;;7.72;;
53052;SDS011;38934;52.690;6.184;2023-05-10T12:28:31;12.77;;;8.45;;
53052;SDS011;38934;52.690;6.184;2023-05-10T12:30:59;10.77;;;7.70;;
53052;SDS011;38934;52.690;6.184;2023-05-10T12:33:25;11.02;;;7.90;;
53052;SDS011;38934;52.690;6.184;2023-05-10T12:35:51;11.95;;;7.90;;
53052;SDS011;38934;52.690;6.184;2023-05-10T12:40:55;14.35;;;7.90;;
53052;SDS011;38934;52.690;6.184;2023-05-10T12:43:31;12.00;;;7.70;;
53052;SDS011;38934;52.690;6.184;2023-05-10T12:45:58;14.55;;;7.28;;
53052;SDS011;38934;52.690;6.184;2023-05-10T12:48:24;12.30;;;7.20;;
53052;SDS011;38934;52.690;6.184;2023-05-10T12:50:50;10.98;;;6.45;;
53052;SDS011;38934;52.690;6.184;2023-05-10T12:53:16;9.90;;;6.57;;
53052;SDS011;38934;52.690;6.184;2023-05-10T12:55:42;11.13;;;6.88;;
53052;SDS011;38934;52.690;6.184;2023-05-10T12:58:08;11.50;;;8.05;;
53052;SDS011;38934;52.690;6.184;2023-05-10T13:00:34;11.38;;;7.80;;
53052;SDS011;38934;52.690;6.184;2023-05-10T13:03:00;11.65;;;8.57;;
53052;SDS011;38934;52.690;6.184;2023-05-10T13:05:26;12.85;;;8.70;;
53052;SDS011;38934;52.690;6.184;2023-05-10T13:07:51;12.48;;;8.20;;
53052;SDS011;38934;52.690;6.184;2023-05-10T13:10:23;10.38;;;8.07;;
53052;SDS011;38934;52.690;6.184;2023-05-10T13:12:50;11.88;;;7.93;;
53052;SDS011;38934;52.690;6.184;2023-05-10T13:15:18;11.90;;;8.30;;
53052;SDS011;38934;52.690;6.184;2023-05-10T13:17:43;11.93;;;8.75;;
53052;SDS011;38934;52.690;6.184;2023-05-10T13:20:10;11.18;;;8.50;;
53052;SDS011;38934;52.690;6.184;2023-05-10T13:22:42;12.55;;;8.82;;
53052;SDS011;38934;52.690;6.184;2023-05-10T13:25:08;13.55;;;8.40;;
53052;SDS011;38934;52.690;6.184;2023-05-10T13:27:34;12.35;;;8.70;;
53052;SDS011;38934;52.690;6.184;2023-05-10T13:30:00;14.73;;;9.18;;
53052;SDS011;38934;52.690;6.184;2023-05-10T13:32:30;11.98;;;8.68;;
53052;SDS011;38934;52.690;6.184;2023-05-10T13:34:56;13.77;;;9.02;;
53052;SDS011;38934;52.690;6.184;2023-05-10T13:37:21;12.77;;;9.23;;
53052;SDS011;38934;52.690;6.184;2023-05-10T13:39:47;13.23;;;9.73;;
53052;SDS011;38934;52.690;6.184;2023-05-10T13:42:13;16.08;;;9.60;;
53052;SDS011;38934;52.690;6.184;2023-05-10T13:44:40;13.30;;;9.40;;
53052;SDS011;38934;52.690;6.184;2023-05-10T13:47:06;15.52;;;10.30;;
53052;SDS011;38934;52.690;6.184;2023-05-10T13:49:32;14.57;;;9.43;;
53052;SDS011;38934;52.690;6.184;2023-05-10T13:51:59;12.23;;;9.05;;
53052;SDS011;38934;52.690;6.184;2023-05-10T13:54:32;13.15;;;8.85;;
53052;SDS011;38934;52.690;6.184;2023-05-10T13:57:00;13.90;;;9.15;;
53052;SDS011;38934;52.690;6.184;2023-05-10T13:59:25;13.23;;;9.30;;
53052;SDS011;38934;52.690;6.184;2023-05-10T14:01:51;11.75;;;8.57;;
53052;SDS011;38934;52.690;6.184;2023-05-10T14:04:17;12.13;;;8.98;;
53052;SDS011;38934;52.690;6.184;2023-05-10T14:06:42;10.65;;;7.93;;
53052;SDS011;38934;52.690;6.184;2023-05-10T14:09:09;13.23;;;7.80;;
53052;SDS011;38934;52.690;6.184;2023-05-10T14:11:35;12.27;;;8.70;;
53052;SDS011;38934;52.690;6.184;2023-05-10T14:14:01;9.60;;;7.10;;
53052;SDS011;38934;52.690;6.184;2023-05-10T14:16:27;12.65;;;7.93;;
53052;SDS011;38934;52.690;6.184;2023-05-10T14:18:54;9.98;;;6.97;;
53052;SDS011;38934;52.690;6.184;2023-05-10T14:21:20;11.00;;;6.80;;
53052;SDS011;38934;52.690;6.184;2023-05-10T14:23:45;8.85;;;6.03;;
53052;SDS011;38934;52.690;6.184;2023-05-10T14:26:11;10.15;;;6.43;;
53052;SDS011;38934;52.690;6.184;2023-05-10T14:28:38;7.40;;;5.68;;
53052;SDS011;38934;52.690;6.184;2023-05-10T14:31:04;7.65;;;5.35;;
53052;SDS011;38934;52.690;6.184;2023-05-10T14:33:31;7.75;;;5.13;;
53052;SDS011;38934;52.690;6.184;2023-05-10T14:35:57;7.03;;;4.28;;
53052;SDS011;38934;52.690;6.184;2023-05-10T14:38:24;6.60;;;4.93;;
53052;SDS011;38934;52.690;6.184;2023-05-10T14:40:50;7.75;;;5.07;;
53052;SDS011;38934;52.690;6.184;2023-05-10T14:43:16;7.05;;;4.63;;
53052;SDS011;38934;52.690;6.184;2023-05-10T14:45:43;6.50;;;5.00;;
53052;SDS011;38934;52.690;6.184;2023-05-10T14:48:09;7.47;;;4.78;;
53052;SDS011;38934;52.690;6.184;2023-05-10T14:50:40;5.68;;;3.83;;
53052;SDS011;38934;52.690;6.184;2023-05-10T14:53:06;6.18;;;4.40;;
53052;SDS011;38934;52.690;6.184;2023-05-10T14:55:32;7.93;;;5.05;;
53052;SDS011;38934;52.690;6.184;2023-05-10T14:57:59;8.15;;;4.25;;
53052;SDS011;38934;52.690;6.184;2023-05-10T15:00:24;7.43;;;4.50;;
53052;SDS011;38934;52.690;6.184;2023-05-10T15:02:50;12.32;;;5.60;;
53052;SDS011;38934;52.690;6.184;2023-05-10T15:05:15;11.32;;;4.72;;
53052;SDS011;38934;52.690;6.184;2023-05-10T15:07:41;10.10;;;4.82;;
53052;SDS011;38934;52.690;6.184;2023-05-10T15:10:09;8.43;;;5.00;;
53052;SDS011;38934;52.690;6.184;2023-05-10T15:12:35;8.57;;;4.95;;
53052;SDS011;38934;52.690;6.184;2023-05-10T15:15:01;7.55;;;4.78;;
53052;SDS011;38934;52.690;6.184;2023-05-10T15:17:27;6.03;;;4.50;;
53052;SDS011;38934;52.690;6.184;2023-05-10T15:19:53;6.22;;;4.50;;
53052;SDS011;38934;52.690;6.184;2023-05-10T15:22:18;8.02;;;4.93;;
53052;SDS011;38934;52.690;6.184;2023-05-10T15:24:44;6.35;;;4.97;;
53052;SDS011;38934;52.690;6.184;2023-05-10T15:27:10;7.35;;;5.40;;
53052;SDS011;38934;52.690;6.184;2023-05-10T15:29:36;7.25;;;5.88;;
53052;SDS011;38934;52.690;6.184;2023-05-10T15:32:01;7.65;;;4.88;;
53052;SDS011;38934;52.690;6.184;2023-05-10T15:34:28;6.63;;;4.93;;
53052;SDS011;38934;52.690;6.184;2023-05-10T15:36:54;7.30;;;4.63;;
53052;SDS011;38934;52.690;6.184;2023-05-10T15:39:20;5.95;;;4.63;;
53052;SDS011;38934;52.690;6.184;2023-05-10T15:41:46;6.70;;;4.57;;
53052;SDS011;38934;52.690;6.184;2023-05-10T15:44:12;6.65;;;4.70;;
53052;SDS011;38934;52.690;6.184;2023-05-10T15:46:38;7.15;;;4.95;;
53052;SDS011;38934;52.690;6.184;2023-05-10T15:49:04;6.85;;;4.78;;
53052;SDS011;38934;52.690;6.184;2023-05-10T15:51:32;8.85;;;5.90;;
53052;SDS011;38934;52.690;6.184;2023-05-10T15:54:01;8.43;;;5.72;;